St Pierre — FIDX — position and weather

sailwx.info

Track history (hours):
 
Tides and Currents Weather Stations Pressure Air Temp Water Temp Dewpoint Dewpoint Depression Visibility Wind Speed Wind Dir Waves Ship Positions

St Pierre

Last reported at 2016-Feb-10 19:33 UTC. Time now 2016-Feb-10 20:11 UTC.
Position N 47°13' W 001°47'.

Length 84 m; draft 6.2 m.

Type: Cargo ship. MMSI: 228024800.

Date/timePositionNaut miles runAvg speedWind from/ knotsBaromVisibWave heightAir tempDewpointWater temp
2016-Feb-10 19:33N 47°13' W 001°47'6 6.2
2016-Feb-10 18:32N 47°12' W 001°38'0 0.0
2016-Feb-10 17:32N 47°12' W 001°38'0 0.0
2016-Feb-10 16:32N 47°12' W 001°38'9 9.2
2016-Feb-10 15:33N 47°15' W 001°51'1111.4
2016-Feb-10 14:33N 47°18' W 002°07'1111.1
2016-Feb-10 13:33N 47°10' W 002°18'6 5.7
2016-Feb-10 12:32N 47°05' W 002°21'0 0.1
2016-Feb-10 11:26N 47°05' W 002°21'0 0.0
2016-Feb-10 10:32N 47°05' W 002°21'6 5.9
2016-Feb-10 09:33N 47°10' W 002°18'1212.3
2016-Feb-10 08:33N 47°18' W 002°05'1212.4
2016-Feb-10 07:33N 47°13' W 001°48'8 7.6
2016-Feb-10 06:32N 47°12' W 001°37'0 0.0
2016-Feb-10 05:32N 47°12' W 001°37'0 0.0
2016-Feb-10 04:32N 47°12' W 001°37'0 0.0
2016-Feb-10 03:32N 47°12' W 001°37'0 0.0
2016-Feb-10 02:32N 47°12' W 001°37'0 0.0
2016-Feb-10 01:32N 47°12' W 001°37'0 0.0
2016-Feb-10 00:32N 47°12' W 001°37'0 0.0
2016-Feb-09 23:32N 47°12' W 001°37'0 0.0
2016-Feb-09 22:32N 47°12' W 001°37'0 0.0
2016-Feb-09 21:26N 47°12' W 001°37'0 0.0
2016-Feb-09 20:29N 47°12' W 001°37'0 0.0
2016-Feb-09 19:32N 47°12' W 001°37'0 0.0
2016-Feb-09 18:32N 47°12' W 001°37'0 0.0
2016-Feb-09 17:32N 47°12' W 001°37'0 0.0
2016-Feb-09 16:32N 47°12' W 001°37'0 0.0
2016-Feb-09 15:32N 47°12' W 001°37'0 0.0
2016-Feb-08 21:11N 47°12' W 001°37'0 0.0
2016-Feb-08 20:32N 47°12' W 001°37'0 0.0
2016-Feb-08 16:14N 47°12' W 001°37'0 0.0
2016-Feb-08 15:29N 47°12' W 001°37'0 0.0
2016-Feb-08 14:32N 47°12' W 001°37'0 0.0
2016-Feb-08 13:32N 47°12' W 001°37'0 0.0
2016-Feb-08 12:32N 47°12' W 001°37'0 0.0
2016-Feb-08 11:32N 47°12' W 001°37'0 0.0
2016-Feb-08 10:32N 47°12' W 001°37'0 0.0
2016-Feb-08 09:23N 47°12' W 001°37'0 0.0
2016-Feb-06 17:20N 47°12' W 001°37'0 0.0
2016-Feb-06 16:32N 47°12' W 001°37'0 0.0
2016-Feb-06 15:29N 47°12' W 001°37'0 0.0
2016-Feb-06 14:05N 47°12' W 001°37'0 0.0
2016-Feb-06 01:17N 47°12' W 001°37'0 0.0
2016-Feb-06 00:20N 47°12' W 001°37'0 0.0
2016-Feb-05 23:20N 47°12' W 001°37'0 0.0
2016-Feb-05 22:20N 47°12' W 001°37'0 0.0
2016-Feb-05 21:23N 47°12' W 001°37'0 0.0
2016-Feb-05 20:05N 47°12' W 001°37'0 0.0
2016-Feb-05 19:32N 47°12' W 001°37'0 0.0
2016-Feb-05 18:32N 47°12' W 001°37'0 0.0
2016-Feb-05 17:32N 47°12' W 001°37'0 0.0
2016-Feb-05 16:29N 47°12' W 001°37'0 0.0
2016-Feb-05 15:29N 47°12' W 001°37'1 0.7
2016-Feb-05 14:28N 47°12' W 001°38'0 0.0
2016-Feb-05 13:25N 47°12' W 001°38'1 1.3
2016-Feb-05 12:34N 47°12' W 001°39'9 9.2
2016-Feb-05 11:33N 47°16' W 001°52'10 9.6
2016-Feb-05 10:34N 47°18' W 002°05'1010.1
2016-Feb-05 09:34N 47°12' W 002°17'8 7.2
2016-Feb-05 08:29N 47°05' W 002°21'0 0.0
2016-Feb-05 07:32N 47°05' W 002°21'0 0.2
2016-Feb-05 06:32N 47°05' W 002°21'7 6.9
2016-Feb-05 05:33N 47°11' W 002°18'1111.4
2016-Feb-05 04:34N 47°18' W 002°04'1211.6
2016-Feb-05 03:34N 47°13' W 001°49'8 7.3
2016-Feb-05 02:31N 47°12' W 001°38'0 0.0
2016-Feb-05 01:31N 47°12' W 001°38'0 0.0
2016-Feb-05 00:31N 47°12' W 001°38'0 0.0
2016-Feb-04 23:22N 47°12' W 001°38'0 0.0
2016-Feb-04 22:28N 47°12' W 001°38'0 0.0
2016-Feb-04 21:31N 47°12' W 001°38'0 0.0
2016-Feb-04 20:31N 47°12' W 001°38'0 0.0
2016-Feb-04 19:28N 47°12' W 001°38'0 0.0
2016-Feb-04 18:28N 47°12' W 001°38'0 0.0
2016-Feb-04 17:28N 47°12' W 001°38'0 0.0
2016-Feb-04 16:22N 47°12' W 001°38'0 0.0
2016-Feb-04 15:31N 47°12' W 001°38'0 0.0
2016-Feb-04 14:31N 47°12' W 001°38'0 0.0
2016-Feb-04 13:28N 47°12' W 001°38'0 0.0
2016-Feb-04 12:31N 47°12' W 001°38'0 0.0
2016-Feb-04 11:28N 47°12' W 001°38'4 4.1
2016-Feb-04 10:33N 47°12' W 001°43'9 9.4
2016-Feb-04 09:33N 47°17' W 001°55'10 9.9
2016-Feb-04 08:33N 47°17' W 002°10'7 7.1
2016-Feb-04 07:32N 47°12' W 002°18'0 0.0
2016-Feb-04 06:32N 47°12' W 002°18'0 0.1
2016-Feb-04 05:05N 47°12' W 002°18'0 0.0
2016-Feb-04 04:23N 47°12' W 002°18'0 0.0
2016-Feb-04 03:29N 47°12' W 002°18'0 0.0
2016-Feb-04 02:32N 47°12' W 002°18'0 0.1
2016-Feb-04 01:32N 47°12' W 002°18'0 0.1
2016-Feb-04 00:32N 47°12' W 002°18'0 0.0
2016-Feb-03 23:32N 47°12' W 002°18'0 0.0
2016-Feb-03 22:32N 47°12' W 002°18'0 0.0
2016-Feb-03 21:32N 47°12' W 002°18'0 0.0
2016-Feb-03 20:32N 47°12' W 002°18'0 0.0
2016-Feb-03 19:32N 47°12' W 002°18'0 0.1
2016-Feb-03 18:23N 47°12' W 002°18'0 0.0
2016-Feb-03 17:33N 47°12' W 002°18'5 5.3
2016-Feb-03 16:33N 47°07' W 002°21'3 2.4
2016-Feb-03 15:29N 47°05' W 002°21'0 0.1
2016-Feb-03 14:29N 47°05' W 002°21'0 0.1
2016-Feb-03 13:29N 47°05' W 002°21'8 8.6
2016-Feb-03 12:33N 47°12' W 002°17'9 9.1
2016-Feb-03 11:33N 47°18' W 002°07'0 0.2
2016-Feb-03 10:31N 47°18' W 002°07'0 0.0
2016-Feb-03 09:31N 47°18' W 002°07'0 0.0
2016-Feb-03 08:31N 47°18' W 002°07'1 0.8
2016-Feb-03 07:33N 47°18' W 002°08'9 9.2
2016-Feb-03 06:33N 47°11' W 002°18'7 7.0
2016-Feb-03 05:32N 47°05' W 002°22'1 1.0
2016-Feb-03 04:25N 47°05' W 002°21'0 0.3
2016-Feb-03 03:32N 47°05' W 002°21'0 0.5
2016-Feb-03 02:33N 47°05' W 002°21'0 0.2
2016-Feb-03 01:33N 47°05' W 002°21'0 0.1
2016-Feb-03 00:33N 47°05' W 002°21'3 2.9
2016-Feb-02 23:33N 47°08' W 002°20'8 7.7
2016-Feb-02 22:33N 47°14' W 002°15'7 6.7
2016-Feb-02 21:33N 47°18' W 002°07'0 0.0
2016-Feb-02 20:27N 47°18' W 002°07'0 0.0
2016-Feb-02 19:33N 47°18' W 002°07'7 7.2
2016-Feb-02 18:33N 47°14' W 002°15'10 9.6
2016-Feb-02 17:33N 47°06' W 002°23'1 1.3
2016-Feb-02 16:28N 47°05' W 002°21'0 0.0
2016-Feb-02 15:31N 47°05' W 002°21'2 1.6
2016-Feb-02 14:33N 47°06' W 002°21'1111.2
2016-Feb-02 13:33N 47°16' W 002°12'1010.5
2016-Feb-02 12:33N 47°17' W 001°56'1110.8
2016-Feb-02 11:33N 47°12' W 001°42'4 3.5
2016-Feb-02 10:30N 47°12' W 001°37'0 0.0
2016-Feb-02 07:33N 47°12' W 001°37'0 0.0
2016-Feb-01 17:18N 47°12' W 001°37'0 0.0
2016-Feb-01 16:33N 47°12' W 001°37'0 0.0
2016-Feb-01 15:33N 47°12' W 001°37'0 0.0
2016-Feb-01 14:24N 47°12' W 001°37'0 0.0
2016-Feb-01 13:33N 47°12' W 001°37'0 0.0
2016-Feb-01 12:30N 47°12' W 001°37'0 0.0
2016-Feb-01 11:33N 47°12' W 001°37'0 0.0
2016-Feb-01 10:30N 47°12' W 001°37'0 0.0
2016-Feb-01 09:33N 47°12' W 001°37'0 0.0
2016-Feb-01 08:33N 47°12' W 001°37'0 0.0
2016-Feb-01 07:33N 47°12' W 001°37'0 0.0
2016-Feb-01 06:33N 47°12' W 001°37'0 0.0
2016-Feb-01 05:33N 47°12' W 001°37'0 0.0
2016-Feb-01 04:30N 47°12' W 001°37'0 0.0
2016-Feb-01 03:33N 47°12' W 001°37'0 0.0
2016-Feb-01 02:30N 47°12' W 001°37'0 0.0
2016-Feb-01 01:30N 47°12' W 001°37'0 0.0
2016-Feb-01 00:33N 47°12' W 001°37'0 0.0
2016-Jan-31 23:33N 47°12' W 001°37'0 0.0
2016-Jan-31 22:33N 47°12' W 001°37'0 0.0
2016-Jan-31 21:33N 47°12' W 001°37'0 0.0
2016-Jan-31 20:33N 47°12' W 001°37'  
Track history (hours):
 
Tides and Currents Weather Stations Pressure Air Temp Water Temp Dewpoint Dewpoint Depression Visibility Wind Speed Wind Dir Waves Ship Positions

St Pierre

Last reported at 2016-Feb-10 19:33 UTC. Time now 2016-Feb-10 20:11 UTC.
Position N 47°13' W 001°47'.

Length 84 m; draft 6.2 m.

Type: Cargo ship. MMSI: 228024800.

Date/timePositionNaut miles runAvg speedWind from/ knotsBaromVisibWave heightAir tempDewpointWater temp
2016-Feb-10 19:33N 47°13' W 001°47'6 6.2
2016-Feb-10 18:32N 47°12' W 001°38'0 0.0
2016-Feb-10 17:32N 47°12' W 001°38'0 0.0
2016-Feb-10 16:32N 47°12' W 001°38'9 9.2
2016-Feb-10 15:33N 47°15' W 001°51'1111.4
2016-Feb-10 14:33N 47°18' W 002°07'1111.1
2016-Feb-10 13:33N 47°10' W 002°18'6 5.7
2016-Feb-10 12:32N 47°05' W 002°21'0 0.1
2016-Feb-10 11:26N 47°05' W 002°21'0 0.0
2016-Feb-10 10:32N 47°05' W 002°21'6 5.9
2016-Feb-10 09:33N 47°10' W 002°18'1212.3
2016-Feb-10 08:33N 47°18' W 002°05'1212.4
2016-Feb-10 07:33N 47°13' W 001°48'8 7.6
2016-Feb-10 06:32N 47°12' W 001°37'0 0.0
2016-Feb-10 05:32N 47°12' W 001°37'0 0.0
2016-Feb-10 04:32N 47°12' W 001°37'0 0.0
2016-Feb-10 03:32N 47°12' W 001°37'0 0.0
2016-Feb-10 02:32N 47°12' W 001°37'0 0.0
2016-Feb-10 01:32N 47°12' W 001°37'0 0.0
2016-Feb-10 00:32N 47°12' W 001°37'0 0.0
2016-Feb-09 23:32N 47°12' W 001°37'0 0.0
2016-Feb-09 22:32N 47°12' W 001°37'0 0.0
2016-Feb-09 21:26N 47°12' W 001°37'0 0.0
2016-Feb-09 20:29N 47°12' W 001°37'0 0.0
2016-Feb-09 19:32N 47°12' W 001°37'0 0.0
2016-Feb-09 18:32N 47°12' W 001°37'0 0.0
2016-Feb-09 17:32N 47°12' W 001°37'0 0.0
2016-Feb-09 16:32N 47°12' W 001°37'0 0.0
2016-Feb-09 15:32N 47°12' W 001°37'0 0.0
2016-Feb-08 21:11N 47°12' W 001°37'0 0.0
2016-Feb-08 20:32N 47°12' W 001°37'0 0.0
2016-Feb-08 16:14N 47°12' W 001°37'0 0.0
2016-Feb-08 15:29N 47°12' W 001°37'0 0.0
2016-Feb-08 14:32N 47°12' W 001°37'0 0.0
2016-Feb-08 13:32N 47°12' W 001°37'0 0.0
2016-Feb-08 12:32N 47°12' W 001°37'0 0.0
2016-Feb-08 11:32N 47°12' W 001°37'0 0.0
2016-Feb-08 10:32N 47°12' W 001°37'0 0.0
2016-Feb-08 09:23N 47°12' W 001°37'0 0.0
2016-Feb-06 17:20N 47°12' W 001°37'0 0.0
2016-Feb-06 16:32N 47°12' W 001°37'0 0.0
2016-Feb-06 15:29N 47°12' W 001°37'0 0.0
2016-Feb-06 14:05N 47°12' W 001°37'0 0.0
2016-Feb-06 01:17N 47°12' W 001°37'0 0.0
2016-Feb-06 00:20N 47°12' W 001°37'0 0.0
2016-Feb-05 23:20N 47°12' W 001°37'0 0.0
2016-Feb-05 22:20N 47°12' W 001°37'0 0.0
2016-Feb-05 21:23N 47°12' W 001°37'0 0.0
2016-Feb-05 20:05N 47°12' W 001°37'0 0.0
2016-Feb-05 19:32N 47°12' W 001°37'0 0.0
2016-Feb-05 18:32N 47°12' W 001°37'0 0.0
2016-Feb-05 17:32N 47°12' W 001°37'0 0.0
2016-Feb-05 16:29N 47°12' W 001°37'0 0.0
2016-Feb-05 15:29N 47°12' W 001°37'1 0.7
2016-Feb-05 14:28N 47°12' W 001°38'0 0.0
2016-Feb-05 13:25N 47°12' W 001°38'1 1.3
2016-Feb-05 12:34N 47°12' W 001°39'9 9.2
2016-Feb-05 11:33N 47°16' W 001°52'10 9.6
2016-Feb-05 10:34N 47°18' W 002°05'1010.1
2016-Feb-05 09:34N 47°12' W 002°17'8 7.2
2016-Feb-05 08:29N 47°05' W 002°21'0 0.0
2016-Feb-05 07:32N 47°05' W 002°21'0 0.2
2016-Feb-05 06:32N 47°05' W 002°21'7 6.9
2016-Feb-05 05:33N 47°11' W 002°18'1111.4
2016-Feb-05 04:34N 47°18' W 002°04'1211.6
2016-Feb-05 03:34N 47°13' W 001°49'8 7.3
2016-Feb-05 02:31N 47°12' W 001°38'0 0.0
2016-Feb-05 01:31N 47°12' W 001°38'0 0.0
2016-Feb-05 00:31N 47°12' W 001°38'0 0.0
2016-Feb-04 23:22N 47°12' W 001°38'0 0.0
2016-Feb-04 22:28N 47°12' W 001°38'0 0.0
2016-Feb-04 21:31N 47°12' W 001°38'0 0.0
2016-Feb-04 20:31N 47°12' W 001°38'0 0.0
2016-Feb-04 19:28N 47°12' W 001°38'0 0.0
2016-Feb-04 18:28N 47°12' W 001°38'0 0.0
2016-Feb-04 17:28N 47°12' W 001°38'0 0.0
2016-Feb-04 16:22N 47°12' W 001°38'0 0.0
2016-Feb-04 15:31N 47°12' W 001°38'0 0.0
2016-Feb-04 14:31N 47°12' W 001°38'0 0.0
2016-Feb-04 13:28N 47°12' W 001°38'0 0.0
2016-Feb-04 12:31N 47°12' W 001°38'0 0.0
2016-Feb-04 11:28N 47°12' W 001°38'4 4.1
2016-Feb-04 10:33N 47°12' W 001°43'9 9.4
2016-Feb-04 09:33N 47°17' W 001°55'10 9.9
2016-Feb-04 08:33N 47°17' W 002°10'7 7.1
2016-Feb-04 07:32N 47°12' W 002°18'0 0.0
2016-Feb-04 06:32N 47°12' W 002°18'0 0.1
2016-Feb-04 05:05N 47°12' W 002°18'0 0.0
2016-Feb-04 04:23N 47°12' W 002°18'0 0.0
2016-Feb-04 03:29N 47°12' W 002°18'0 0.0
2016-Feb-04 02:32N 47°12' W 002°18'0 0.1
2016-Feb-04 01:32N 47°12' W 002°18'0 0.1
2016-Feb-04 00:32N 47°12' W 002°18'0 0.0
2016-Feb-03 23:32N 47°12' W 002°18'0 0.0
2016-Feb-03 22:32N 47°12' W 002°18'0 0.0
2016-Feb-03 21:32N 47°12' W 002°18'0 0.0
2016-Feb-03 20:32N 47°12' W 002°18'0 0.0
2016-Feb-03 19:32N 47°12' W 002°18'0 0.1
2016-Feb-03 18:23N 47°12' W 002°18'0 0.0
2016-Feb-03 17:33N 47°12' W 002°18'5 5.3
2016-Feb-03 16:33N 47°07' W 002°21'3 2.4
2016-Feb-03 15:29N 47°05' W 002°21'0 0.1
2016-Feb-03 14:29N 47°05' W 002°21'0 0.1
2016-Feb-03 13:29N 47°05' W 002°21'8 8.6
2016-Feb-03 12:33N 47°12' W 002°17'9 9.1
2016-Feb-03 11:33N 47°18' W 002°07'0 0.2
2016-Feb-03 10:31N 47°18' W 002°07'0 0.0
2016-Feb-03 09:31N 47°18' W 002°07'0 0.0
2016-Feb-03 08:31N 47°18' W 002°07'1 0.8
2016-Feb-03 07:33N 47°18' W 002°08'9 9.2
2016-Feb-03 06:33N 47°11' W 002°18'7 7.0
2016-Feb-03 05:32N 47°05' W 002°22'1 1.0
2016-Feb-03 04:25N 47°05' W 002°21'0 0.3
2016-Feb-03 03:32N 47°05' W 002°21'0 0.5
2016-Feb-03 02:33N 47°05' W 002°21'0 0.2
2016-Feb-03 01:33N 47°05' W 002°21'0 0.1
2016-Feb-03 00:33N 47°05' W 002°21'3 2.9
2016-Feb-02 23:33N 47°08' W 002°20'8 7.7
2016-Feb-02 22:33N 47°14' W 002°15'7 6.7
2016-Feb-02 21:33N 47°18' W 002°07'0 0.0
2016-Feb-02 20:27N 47°18' W 002°07'0 0.0
2016-Feb-02 19:33N 47°18' W 002°07'7 7.2
2016-Feb-02 18:33N 47°14' W 002°15'10 9.6
2016-Feb-02 17:33N 47°06' W 002°23'1 1.3
2016-Feb-02 16:28N 47°05' W 002°21'0 0.0
2016-Feb-02 15:31N 47°05' W 002°21'2 1.6
2016-Feb-02 14:33N 47°06' W 002°21'1111.2
2016-Feb-02 13:33N 47°16' W 002°12'1010.5
2016-Feb-02 12:33N 47°17' W 001°56'1110.8
2016-Feb-02 11:33N 47°12' W 001°42'4 3.5
2016-Feb-02 10:30N 47°12' W 001°37'0 0.0
2016-Feb-02 07:33N 47°12' W 001°37'0 0.0
2016-Feb-01 17:18N 47°12' W 001°37'0 0.0
2016-Feb-01 16:33N 47°12' W 001°37'0 0.0
2016-Feb-01 15:33N 47°12' W 001°37'0 0.0
2016-Feb-01 14:24N 47°12' W 001°37'0 0.0
2016-Feb-01 13:33N 47°12' W 001°37'0 0.0
2016-Feb-01 12:30N 47°12' W 001°37'0 0.0
2016-Feb-01 11:33N 47°12' W 001°37'0 0.0
2016-Feb-01 10:30N 47°12' W 001°37'0 0.0
2016-Feb-01 09:33N 47°12' W 001°37'0 0.0
2016-Feb-01 08:33N 47°12' W 001°37'0 0.0
2016-Feb-01 07:33N 47°12' W 001°37'0 0.0
2016-Feb-01 06:33N 47°12' W 001°37'0 0.0
2016-Feb-01 05:33N 47°12' W 001°37'0 0.0
2016-Feb-01 04:30N 47°12' W 001°37'0 0.0
2016-Feb-01 03:33N 47°12' W 001°37'0 0.0
2016-Feb-01 02:30N 47°12' W 001°37'0 0.0
2016-Feb-01 01:30N 47°12' W 001°37'0 0.0
2016-Feb-01 00:33N 47°12' W 001°37'0 0.0
2016-Jan-31 23:33N 47°12' W 001°37'0 0.0
2016-Jan-31 22:33N 47°12' W 001°37'0 0.0
2016-Jan-31 21:33N 47°12' W 001°37'0 0.0
2016-Jan-31 20:33N 47°12' W 001°37'  

Dump ship's entire track history